Time;durP1;ratioP1;P1;durP2;ratioP2;P2;SDS_P1;SDS_P2;PMS_P1;PMS_P2;Temp;Humidity;BMP_temperature;BMP_pressure;BME280_temperature;BME280_humidity;BME280_pressure;Samples;Min_cycle;Max_cycle;Signal;HPM_P1;HPM_P2
2022/10/30 00:00:26;;;;;;;5.07;4.57;;;16.60;43.10;;;;;;10531257;28;20701;-71
2022/10/30 00:05:29;;;;;;;4.47;4.03;;;16.60;43.10;;;;;;10532922;28;20702;-71
2022/10/30 00:10:34;;;;;;;5.43;4.73;;;16.50;43.00;;;;;;10533230;28;20230;-71
2022/10/30 00:15:39;;;;;;;7.47;5.20;;;16.50;43.00;;;;;;10533053;28;20223;-71
2022/10/30 00:20:42;;;;;;;10.70;5.90;;;16.40;43.10;;;;;;10533286;28;20191;-71
2022/10/30 00:25:45;;;;;;;9.17;6.13;;;16.30;43.10;;;;;;10532826;28;20220;-72
2022/10/30 00:30:49;;;;;;;5.93;5.27;;;16.20;43.20;;;;;;10533282;28;20224;-72
2022/10/30 00:35:52;;;;;;;5.83;5.17;;;16.10;43.70;;;;;;10546814;28;20600;-71
2022/10/30 00:40:55;;;;;;;6.20;5.60;;;16.10;43.70;;;;;;10546568;28;20237;-71
2022/10/30 00:46:02;;;;;;;7.17;5.30;;;16.00;43.80;;;;;;10546224;28;20303;-72
2022/10/30 00:51:08;;;;;;;6.90;6.20;;;16.10;44.00;;;;;;10546488;28;20616;-71
2022/10/30 00:56:12;;;;;;;5.97;5.07;;;16.00;43.70;;;;;;10545658;28;20188;-71
2022/10/30 01:01:19;;;;;;;4.63;4.10;;;16.00;43.50;;;;;;10545171;28;20235;-71
2022/10/30 01:06:23;;;;;;;5.70;4.30;;;16.00;43.40;;;;;;10543497;28;20238;-71
2022/10/30 01:11:26;;;;;;;5.93;5.37;;;16.00;43.40;;;;;;10543021;28;20239;-71
2022/10/30 01:16:57;;;;;;;7.47;4.50;;;15.90;43.10;;;;;;10543208;28;20239;-71
2022/10/30 01:22:19;;;;;;;8.30;4.83;;;15.80;43.30;;;;;;10543006;28;20223;-70
2022/10/30 01:27:35;;;;;;;5.87;5.00;;;15.70;43.60;;;;;;10542679;28;20235;-71
2022/10/30 01:32:55;;;;;;;6.17;4.80;;;15.60;43.80;;;;;;10542771;28;20707;-71
2022/10/30 01:38:07;;;;;;;6.60;4.70;;;15.60;44.00;;;;;;10542659;28;20766;-71
2022/10/30 01:43:10;;;;;;;5.00;4.50;;;15.50;43.90;;;;;;10539457;28;20277;-71
2022/10/30 01:48:35;;;;;;;5.40;4.90;;;15.50;43.60;;;;;;10536042;28;20239;-71
2022/10/30 01:53:51;;;;;;;5.00;4.40;;;15.50;43.90;;;;;;10535681;28;20228;-71
2022/10/30 01:59:02;;;;;;;4.60;4.00;;;15.50;44.00;;;;;;10535303;28;20569;-71
2022/10/30 02:04:08;;;;;;;4.30;3.90;;;15.50;43.90;;;;;;10535250;28;20644;-71
2022/10/30 02:09:11;;;;;;;4.60;3.80;;;15.40;43.60;;;;;;10535188;28;20231;-70
2022/10/30 02:14:18;;;;;;;3.90;3.43;;;15.40;43.60;;;;;;10534603;28;20227;-71
2022/10/30 02:19:22;;;;;;;5.27;3.50;;;15.30;43.90;;;;;;10534978;28;20244;-72
2022/10/30 02:24:27;;;;;;;4.03;3.63;;;15.20;44.00;;;;;;10534484;28;20791;-70
2022/10/30 02:29:30;;;;;;;4.83;3.30;;;15.20;44.30;;;;;;10534263;28;20227;-71
2022/10/30 02:34:33;;;;;;;5.37;3.77;;;15.20;44.00;;;;;;10534201;28;20258;-71
2022/10/30 02:39:38;;;;;;;5.20;4.10;;;15.30;43.90;;;;;;10534062;28;20250;-71
2022/10/30 02:44:41;;;;;;;6.53;4.07;;;15.20;43.80;;;;;;10533607;28;20228;-71
2022/10/30 02:49:44;;;;;;;4.60;3.73;;;15.20;43.70;;;;;;10533517;28;20725;-71
2022/10/30 02:54:49;;;;;;;5.87;4.03;;;15.20;43.80;;;;;;10533056;28;20231;-71
2022/10/30 02:59:52;;;;;;;4.90;3.90;;;15.10;43.90;;;;;;10532951;28;20652;-71
2022/10/30 03:04:55;;;;;;;3.63;3.30;;;15.10;43.40;;;;;;10532877;28;20236;-71
2022/10/30 03:09:59;;;;;;;4.53;3.87;;;14.90;43.30;;;;;;10532824;28;20709;-71
2022/10/30 03:15:02;;;;;;;3.60;3.30;;;14.80;44.10;;;;;;10532072;28;20243;-72
2022/10/30 03:20:06;;;;;;;3.90;3.60;;;14.70;44.10;;;;;;10532425;28;20281;-70
2022/10/30 03:25:11;;;;;;;3.83;3.53;;;14.70;44.10;;;;;;10532358;28;20267;-71
2022/10/30 03:30:14;;;;;;;3.50;3.20;;;14.70;44.10;;;;;;10531942;28;20243;-71
2022/10/30 03:35:17;;;;;;;5.70;3.20;;;14.70;44.10;;;;;;10531847;28;20231;-71
2022/10/30 03:40:21;;;;;;;3.83;3.30;;;14.70;44.10;;;;;;10531565;28;20244;-70
2022/10/30 03:45:24;;;;;;;3.60;3.30;;;14.70;43.90;;;;;;10531110;28;20231;-71
2022/10/30 03:50:28;;;;;;;4.67;3.60;;;14.60;43.70;;;;;;10531210;28;20412;-71
2022/10/30 03:55:32;;;;;;;3.40;3.20;;;14.60;44.00;;;;;;10530996;28;20712;-71
2022/10/30 04:00:36;;;;;;;4.60;3.00;;;14.50;43.90;;;;;;10530842;28;20594;-71
2022/10/30 04:05:39;;;;;;;3.73;3.03;;;14.50;43.90;;;;;;10530159;28;20230;-71
2022/10/30 04:10:44;;;;;;;4.00;3.50;;;14.50;43.90;;;;;;10530539;28;20240;-71
2022/10/30 04:15:49;;;;;;;4.63;3.70;;;14.40;43.80;;;;;;10530461;28;20224;-71
2022/10/30 04:21:00;;;;;;;6.13;3.57;;;14.40;43.80;;;;;;10530580;28;20230;-71
2022/10/30 04:26:04;;;;;;;7.53;3.87;;;14.20;43.60;;;;;;10529832;28;20232;-71
2022/10/30 04:31:07;;;;;;;6.37;3.50;;;14.20;44.40;;;;;;10530012;28;20285;-71
2022/10/30 04:36:10;;;;;;;3.70;2.90;;;14.20;44.10;;;;;;10530321;28;20243;-71
2022/10/30 04:41:15;;;;;;;5.23;3.33;;;14.20;43.80;;;;;;10530011;28;20269;-71
2022/10/30 04:46:18;;;;;;;4.27;3.60;;;14.20;44.20;;;;;;10529980;28;20227;-70
2022/10/30 04:51:22;;;;;;;5.67;3.47;;;14.20;43.70;;;;;;10529715;28;20239;-71
2022/10/30 04:56:26;;;;;;;7.50;3.60;;;14.20;43.70;;;;;;10529783;28;20372;-71
2022/10/30 05:01:29;;;;;;;5.40;3.30;;;14.20;43.80;;;;;;10529580;28;20277;-71
2022/10/30 05:06:33;;;;;;;4.00;3.50;;;14.20;43.60;;;;;;10529573;28;20235;-71
2022/10/30 05:11:38;;;;;;;3.73;3.30;;;14.30;43.70;;;;;;10529092;28;20365;-71
2022/10/30 05:16:41;;;;;;;4.03;2.97;;;14.20;43.60;;;;;;10529377;28;20231;-71
2022/10/30 05:21:44;;;;;;;4.90;3.40;;;14.20;43.60;;;;;;10537106;28;20297;-71
2022/10/30 05:26:49;;;;;;;3.77;3.23;;;14.20;43.60;;;;;;10536881;28;20227;-70
2022/10/30 05:31:52;;;;;;;4.97;3.13;;;14.20;43.60;;;;;;10536678;28;20224;-71
2022/10/30 05:36:55;;;;;;;5.07;2.97;;;14.10;43.60;;;;;;10536424;28;20813;-71
2022/10/30 05:41:59;;;;;;;3.80;3.20;;;14.10;43.60;;;;;;10536041;28;20227;-71
2022/10/30 05:47:03;;;;;;;3.50;3.03;;;14.00;43.40;;;;;;10535704;28;20584;-70
2022/10/30 05:52:06;;;;;;;5.23;3.00;;;13.90;43.40;;;;;;10535738;28;20239;-71
2022/10/30 05:57:10;;;;;;;3.47;3.00;;;13.90;43.40;;;;;;10535763;28;20235;-71
2022/10/30 06:02:13;;;;;;;7.37;3.90;;;13.90;43.40;;;;;;10535276;28;20231;-71
2022/10/30 06:07:16;;;;;;;4.10;3.67;;;13.80;43.30;;;;;;10535555;28;20228;-71
2022/10/30 06:12:21;;;;;;;5.83;4.60;;;13.80;43.30;;;;;;10534849;28;20232;-71
2022/10/30 06:17:24;;;;;;;5.30;4.50;;;13.80;43.50;;;;;;10534902;28;20230;-71
2022/10/30 06:22:27;;;;;;;4.33;3.93;;;13.70;43.40;;;;;;10534834;28;20239;-71
2022/10/30 06:27:34;;;;;;;4.20;3.70;;;13.70;43.40;;;;;;10534429;28;20223;-71
2022/10/30 06:32:38;;;;;;;5.30;3.40;;;13.60;44.00;;;;;;10533649;28;20231;-71
2022/10/30 06:37:46;;;;;;;4.43;3.13;;;13.50;43.80;;;;;;10534238;28;20227;-71
2022/10/30 06:42:53;;;;;;;5.00;3.60;;;13.50;44.60;;;;;;10533619;28;20716;-71
2022/10/30 06:47:57;;;;;;;4.20;3.13;;;13.50;44.70;;;;;;10533736;28;20227;-71
2022/10/30 06:53:00;;;;;;;4.77;3.33;;;13.60;44.50;;;;;;10533412;28;20228;-70
2022/10/30 06:58:05;;;;;;;3.33;2.70;;;13.60;44.60;;;;;;10533082;28;20231;-71
2022/10/30 07:03:08;;;;;;;3.07;2.33;;;13.70;45.00;;;;;;10532835;28;20239;-71
2022/10/30 07:08:11;;;;;;;5.10;3.73;;;13.70;44.80;;;;;;10532877;28;20244;-71
2022/10/30 07:13:16;;;;;;;3.33;3.00;;;13.80;45.20;;;;;;10532534;28;20277;-71
2022/10/30 07:18:19;;;;;;;4.27;3.40;;;13.80;45.40;;;;;;10532644;28;20232;-70
2022/10/30 07:23:22;;;;;;;5.67;3.50;;;13.90;45.60;;;;;;10532088;28;20651;-71
2022/10/30 07:28:27;;;;;;;5.20;3.57;;;13.90;45.70;;;;;;10531799;28;20227;-71
2022/10/30 07:33:30;;;;;;;5.60;3.70;;;14.00;46.30;;;;;;10531707;28;20234;-71
2022/10/30 07:38:33;;;;;;;4.20;3.77;;;14.10;46.20;;;;;;10531636;28;20986;-71
2022/10/30 07:43:37;;;;;;;4.60;3.87;;;14.20;46.60;;;;;;10530258;28;20739;-70
2022/10/30 07:48:41;;;;;;;4.93;3.77;;;14.30;47.30;;;;;;10530868;28;20276;-71
2022/10/30 07:53:44;;;;;;;5.40;3.53;;;14.40;47.30;;;;;;10531335;28;20705;-71
2022/10/30 07:58:49;;;;;;;6.03;3.87;;;14.40;46.90;;;;;;10530781;28;20246;-71
2022/10/30 08:03:52;;;;;;;6.97;4.10;;;14.60;47.80;;;;;;10530706;28;20231;-71
2022/10/30 08:08:55;;;;;;;5.47;4.20;;;14.70;47.30;;;;;;10530722;28;20295;-71
2022/10/30 08:14:00;;;;;;;5.47;4.20;;;14.90;47.30;;;;;;10530176;28;20239;-71
2022/10/30 08:19:04;;;;;;;6.23;4.30;;;15.00;47.80;;;;;;10530029;28;20231;-71
2022/10/30 08:24:07;;;;;;;4.33;3.93;;;15.10;47.70;;;;;;10530373;28;20258;-71
2022/10/30 08:29:12;;;;;;;5.67;4.47;;;15.30;48.00;;;;;;10529843;28;20236;-71
2022/10/30 08:34:15;;;;;;;7.33;4.33;;;15.40;48.60;;;;;;10530300;28;20728;-71
2022/10/30 08:39:19;;;;;;;7.40;4.57;;;15.60;48.30;;;;;;10530022;28;20630;-71
2022/10/30 08:44:23;;;;;;;5.07;4.57;;;15.70;48.50;;;;;;10529538;28;20243;-71
2022/10/30 08:49:26;;;;;;;7.00;4.43;;;15.90;49.00;;;;;;10529850;28;20227;-71
2022/10/30 08:54:29;;;;;;;6.27;4.10;;;16.00;48.60;;;;;;10534157;28;20241;-71
2022/10/30 08:59:34;;;;;;;7.53;4.87;;;16.20;48.60;;;;;;10537855;28;20226;-71
2022/10/30 09:04:37;;;;;;;8.20;4.80;;;16.50;49.20;;;;;;10537734;28;20239;-71
2022/10/30 09:09:40;;;;;;;7.53;4.93;;;16.60;49.00;;;;;;10537538;28;20227;-71
2022/10/30 09:14:44;;;;;;;7.03;4.30;;;16.90;49.20;;;;;;10536666;28;20228;-71
2022/10/30 09:19:47;;;;;;;9.20;5.13;;;17.10;48.80;;;;;;10537185;28;20235;-71
2022/10/30 09:24:55;;;;;;;5.30;4.70;;;17.30;48.80;;;;;;10536927;28;20292;-71
2022/10/30 09:30:00;;;;;;;10.23;4.67;;;17.50;48.80;;;;;;10536569;28;20227;-71
2022/10/30 09:35:03;;;;;;;6.77;4.60;;;17.80;48.90;;;;;;10510393;28;20288;-72
2022/10/30 09:40:08;;;;;;;7.10;4.43;;;18.00;48.30;;;;;;10535666;28;20262;-71
2022/10/30 09:45:50;;;;;;;5.20;3.93;;;18.20;48.20;;;;;;10535805;28;20231;-71
2022/10/30 09:51:01;;;;;;;6.93;4.83;;;18.50;48.20;;;;;;10535826;28;20223;-71
2022/10/30 09:56:09;;;;;;;5.83;4.40;;;18.70;47.80;;;;;;10535502;28;20273;-71
2022/10/30 10:01:20;;;;;;;6.13;4.60;;;19.00;47.90;;;;;;10535472;28;20227;-71
2022/10/30 10:06:25;;;;;;;8.70;4.63;;;19.20;48.00;;;;;;10534040;28;20640;-72
2022/10/30 10:11:35;;;;;;;6.07;4.27;;;19.50;48.30;;;;;;10535037;28;20238;-71
2022/10/30 10:16:41;;;;;;;7.73;4.40;;;19.70;47.70;;;;;;10535039;28;20231;-71
2022/10/30 10:21:49;;;;;;;7.77;4.30;;;20.00;47.10;;;;;;10534675;28;20235;-71
2022/10/30 10:26:57;;;;;;;7.17;4.30;;;20.20;46.90;;;;;;10534400;28;20255;-72
2022/10/30 10:32:19;;;;;;;7.53;4.13;;;20.30;46.70;;;;;;10534384;28;20231;-71
2022/10/30 10:37:32;;;;;;;5.97;4.10;;;20.50;46.70;;;;;;10534043;28;20273;-72
2022/10/30 10:42:47;;;;;;;5.77;3.83;;;20.70;46.10;;;;;;10533775;28;20235;-72
2022/10/30 10:48:16;;;;;;;6.83;4.20;;;20.90;46.00;;;;;;10533641;28;20236;-72
2022/10/30 10:53:24;;;;;;;5.17;3.90;;;21.00;46.00;;;;;;10533169;28;20227;-71
2022/10/30 10:58:31;;;;;;;4.90;3.77;;;21.20;45.80;;;;;;10532597;28;20276;-72
2022/10/30 11:03:46;;;;;;;6.97;3.70;;;21.30;45.80;;;;;;10529900;28;20612;-71
2022/10/30 11:08:52;;;;;;;6.60;4.07;;;21.50;45.20;;;;;;10532843;28;20240;-72
2022/10/30 11:13:56;;;;;;;6.53;4.23;;;21.60;45.60;;;;;;10532462;28;20232;-72
2022/10/30 11:19:04;;;;;;;7.40;3.97;;;21.70;45.30;;;;;;10532313;28;20251;-71
2022/10/30 11:24:26;;;;;;;6.53;3.70;;;21.80;44.60;;;;;;10532241;28;20265;-72
2022/10/30 11:29:30;;;;;;;6.80;3.97;;;21.90;44.40;;;;;;10532188;28;20647;-72
2022/10/30 11:34:35;;;;;;;5.10;3.73;;;22.00;44.70;;;;;;10531553;28;20247;-71
2022/10/30 11:39:39;;;;;;;5.60;3.80;;;22.10;44.30;;;;;;10531738;28;20240;-72
2022/10/30 11:44:44;;;;;;;7.43;4.20;;;22.20;44.60;;;;;;10531334;28;20651;-72
2022/10/30 11:49:53;;;;;;;7.27;3.90;;;22.30;44.00;;;;;;10531552;28;20785;-72
2022/10/30 11:55:01;;;;;;;4.87;3.77;;;22.40;43.10;;;;;;10530947;28;20760;-72
2022/10/30 12:00:08;;;;;;;6.47;3.67;;;22.50;43.30;;;;;;10530824;28;20231;-72
2022/10/30 12:05:35;;;;;;;7.23;3.40;;;22.60;43.20;;;;;;10530738;28;20231;-71
2022/10/30 12:10:45;;;;;;;6.30;4.23;;;22.70;43.20;;;;;;10530665;28;20281;-72
2022/10/30 12:15:51;;;;;;;9.17;4.20;;;22.70;42.50;;;;;;10530126;28;20234;-71
2022/10/30 12:20:57;;;;;;;7.47;4.50;;;22.90;42.90;;;;;;10530450;28;20861;-72
2022/10/30 12:26:08;;;;;;;7.90;4.10;;;22.90;42.50;;;;;;10530262;28;20308;-72
2022/10/30 12:31:16;;;;;;;6.77;3.93;;;23.00;42.80;;;;;;10529585;28;20230;-72
2022/10/30 12:36:24;;;;;;;6.57;3.77;;;23.00;41.90;;;;;;10529982;28;20243;-72
2022/10/30 12:41:29;;;;;;;5.20;4.13;;;23.10;41.90;;;;;;10529782;28;20235;-71
2022/10/30 12:46:41;;;;;;;5.40;3.83;;;23.20;42.40;;;;;;10529860;28;20238;-72
2022/10/30 12:51:52;;;;;;;6.90;3.47;;;23.20;41.80;;;;;;10529815;28;20235;-72
2022/10/30 12:57:06;;;;;;;10.87;4.60;;;23.30;41.40;;;;;;10529451;28;20239;-72
2022/10/30 13:02:20;;;;;;;6.80;3.83;;;23.30;41.10;;;;;;10529360;28;20243;-72
2022/10/30 13:07:29;;;;;;;7.43;3.60;;;23.40;40.90;;;;;;10529584;28;20258;-72
2022/10/30 13:12:36;;;;;;;6.97;4.00;;;23.40;40.90;;;;;;10529280;28;20235;-72
2022/10/30 13:17:39;;;;;;;5.67;3.43;;;23.50;41.60;;;;;;10529264;28;20305;-72
2022/10/30 13:22:50;;;;;;;5.57;3.67;;;23.60;42.10;;;;;;10529127;28;20717;-72
2022/10/30 13:28:00;;;;;;;6.47;3.77;;;23.60;40.90;;;;;;10528927;28;20300;-72
2022/10/30 13:33:14;;;;;;;7.33;3.53;;;23.70;40.80;;;;;;10528503;28;20799;-72
2022/10/30 13:38:42;;;;;;;6.80;3.43;;;23.70;40.70;;;;;;10529596;28;20235;-72
2022/10/30 13:43:54;;;;;;;7.77;3.63;;;23.70;40.80;;;;;;10536197;28;20277;-70
2022/10/30 13:49:17;;;;;;;5.20;4.03;;;23.70;40.80;;;;;;10536264;28;20239;-70
2022/10/30 13:54:27;;;;;;;6.33;3.50;;;23.70;40.80;;;;;;10536030;28;20647;-70
2022/10/30 13:59:55;;;;;;;5.03;3.60;;;23.70;40.30;;;;;;10535800;28;20281;-70
2022/10/30 14:05:12;;;;;;;4.80;3.57;;;23.70;40.80;;;;;;10535546;28;20235;-70
2022/10/30 14:10:24;;;;;;;7.03;4.33;;;23.70;40.60;;;;;;10535273;28;20231;-70
2022/10/30 14:15:33;;;;;;;6.47;3.67;;;23.70;40.40;;;;;;10534949;28;20231;-70
2022/10/30 14:20:36;;;;;;;7.97;3.33;;;23.70;40.60;;;;;;10535273;28;20231;-70
2022/10/30 14:25:41;;;;;;;3.60;3.30;;;23.70;41.30;;;;;;10534875;28;20612;-70
2022/10/30 14:30:45;;;;;;;9.50;3.43;;;23.70;41.10;;;;;;10534455;28;20224;-69
2022/10/30 14:36:15;;;;;;;6.93;3.40;;;23.60;41.50;;;;;;10534076;28;20227;-70
2022/10/30 14:41:40;;;;;;;7.07;4.00;;;23.60;41.40;;;;;;10533936;28;20610;-69
2022/10/30 14:46:57;;;;;;;6.40;3.70;;;23.60;42.20;;;;;;10533702;28;20231;-70
2022/10/30 14:52:20;;;;;;;6.17;3.87;;;23.60;41.20;;;;;;10532756;28;20239;-70
2022/10/30 14:57:46;;;;;;;6.87;3.87;;;23.60;41.90;;;;;;10532977;28;20235;-70
2022/10/30 15:02:57;;;;;;;5.63;3.83;;;23.50;41.60;;;;;;10533059;28;20747;-70
2022/10/30 15:08:11;;;;;;;5.23;3.50;;;23.40;41.60;;;;;;10532962;28;20238;-70
2022/10/30 15:13:20;;;;;;;4.63;3.60;;;23.40;41.30;;;;;;10532510;28;20227;-70
2022/10/30 15:18:23;;;;;;;5.40;3.43;;;23.30;41.50;;;;;;10532544;28;20731;-70
2022/10/30 15:23:36;;;;;;;5.40;3.50;;;23.30;41.40;;;;;;10532017;28;20318;-70
2022/10/30 15:28:41;;;;;;;6.60;3.43;;;23.20;41.00;;;;;;10532369;28;20246;-70
2022/10/30 15:33:44;;;;;;;4.03;3.20;;;23.10;41.10;;;;;;10531997;28;20232;-70
2022/10/30 15:39:04;;;;;;;5.63;3.43;;;23.00;41.20;;;;;;10531751;28;20234;-70
2022/10/30 15:44:09;;;;;;;5.57;3.70;;;22.90;41.00;;;;;;10531122;28;20285;-70
2022/10/30 15:49:15;;;;;;;6.43;3.83;;;22.90;41.00;;;;;;10531720;28;20266;-70
2022/10/30 15:54:21;;;;;;;4.70;3.57;;;22.80;41.00;;;;;;10531091;28;20242;-70
2022/10/30 15:59:28;;;;;;;6.57;3.67;;;22.70;41.20;;;;;;10530975;28;20231;-70
2022/10/30 16:04:35;;;;;;;5.90;3.60;;;22.60;41.10;;;;;;10530078;28;20231;-69
2022/10/30 16:09:38;;;;;;;6.17;3.50;;;22.50;41.20;;;;;;10530855;28;20232;-70
2022/10/30 16:14:43;;;;;;;4.80;4.07;;;22.50;41.40;;;;;;10530477;28;20231;-70
2022/10/30 16:19:47;;;;;;;7.37;5.23;;;22.30;41.20;;;;;;10530458;28;20597;-70
2022/10/30 16:24:51;;;;;;;9.90;7.43;;;22.30;41.20;;;;;;10530207;28;20232;-70
2022/10/30 16:29:58;;;;;;;12.13;10.33;;;22.20;41.20;;;;;;10530283;28;20301;-69
2022/10/30 16:35:04;;;;;;;12.77;10.27;;;22.00;41.00;;;;;;10529975;28;20235;-70
2022/10/30 16:40:12;;;;;;;14.80;10.70;;;21.90;41.10;;;;;;10529938;28;20238;-70
2022/10/30 16:45:48;;;;;;;13.73;10.40;;;21.80;41.10;;;;;;10529314;28;20235;-70
2022/10/30 16:50:51;;;;;;;10.87;9.47;;;21.70;41.10;;;;;;10404455;28;20227;-70
2022/10/30 16:55:56;;;;;;;10.73;9.67;;;21.60;41.20;;;;;;10529552;28;20231;-70
2022/10/30 17:01:05;;;;;;;10.90;9.40;;;21.50;41.20;;;;;;10529588;28;20231;-70
2022/10/30 17:06:28;;;;;;;11.13;9.47;;;21.30;41.00;;;;;;10529489;28;20232;-70
2022/10/30 17:11:36;;;;;;;17.93;14.33;;;21.20;40.90;;;;;;10528945;28;20610;-70
2022/10/30 17:16:41;;;;;;;16.50;13.10;;;21.10;40.90;;;;;;10535661;28;20669;-70
2022/10/30 17:21:44;;;;;;;13.77;10.80;;;20.90;40.90;;;;;;10537261;28;20277;-69
2022/10/30 17:26:55;;;;;;;12.83;9.87;;;20.90;41.20;;;;;;10536908;28;20238;-70
2022/10/30 17:32:00;;;;;;;11.83;9.07;;;20.70;41.00;;;;;;10536787;28;20223;-70
2022/10/30 17:37:03;;;;;;;8.63;7.17;;;20.60;41.00;;;;;;10536395;28;20292;-70
2022/10/30 17:42:07;;;;;;;9.67;6.40;;;20.50;41.10;;;;;;10536243;28;20231;-70
2022/10/30 17:47:16;;;;;;;9.93;7.50;;;20.40;41.10;;;;;;10536089;28;20239;-72
2022/10/30 17:52:20;;;;;;;11.43;8.73;;;20.30;41.00;;;;;;10536378;28;20361;-72
2022/10/30 17:57:25;;;;;;;9.60;8.50;;;20.10;40.90;;;;;;10535569;28;20604;-71
2022/10/30 18:02:30;;;;;;;8.73;7.40;;;20.00;41.10;;;;;;10535654;28;20240;-72
2022/10/30 18:07:33;;;;;;;10.07;6.87;;;19.80;41.30;;;;;;10535575;28;20250;-71
2022/10/30 18:12:36;;;;;;;6.93;6.00;;;19.70;41.30;;;;;;10535051;28;20277;-72
2022/10/30 18:17:41;;;;;;;6.70;5.50;;;19.60;41.40;;;;;;10534976;28;20850;-71
2022/10/30 18:22:44;;;;;;;9.87;6.60;;;19.60;41.50;;;;;;10534668;28;20236;-72
2022/10/30 18:27:47;;;;;;;8.37;6.80;;;19.50;41.30;;;;;;10533680;28;20247;-72
2022/10/30 18:32:51;;;;;;;12.83;9.07;;;19.40;41.30;;;;;;10534281;28;20273;-71
2022/10/30 18:37:55;;;;;;;16.37;11.67;;;19.30;41.20;;;;;;10534250;28;20230;-72
2022/10/30 18:42:58;;;;;;;14.10;10.90;;;19.30;41.40;;;;;;10533927;28;20223;-72
2022/10/30 18:48:03;;;;;;;14.70;11.13;;;19.20;41.30;;;;;;10533794;28;20314;-72
2022/10/30 18:53:13;;;;;;;15.57;12.03;;;18.90;41.30;;;;;;10533364;28;20232;-72
2022/10/30 18:58:16;;;;;;;11.93;8.43;;;19.00;41.30;;;;;;10533168;28;20250;-72
2022/10/30 19:03:21;;;;;;;9.97;7.30;;;18.90;41.20;;;;;;10533408;28;20227;-72
2022/10/30 19:08:24;;;;;;;7.90;6.87;;;18.80;41.30;;;;;;10533061;28;20228;-72
2022/10/30 19:13:27;;;;;;;7.73;6.30;;;18.60;41.30;;;;;;10532790;28;20301;-71
2022/10/30 19:18:31;;;;;;;8.33;6.40;;;18.50;41.40;;;;;;10532683;28;20647;-72
2022/10/30 19:23:35;;;;;;;7.07;6.40;;;18.40;41.50;;;;;;10532444;28;20684;-72
2022/10/30 19:28:39;;;;;;;8.30;6.90;;;18.30;41.60;;;;;;10532209;28;20228;-71
2022/10/30 19:33:43;;;;;;;10.53;9.07;;;18.30;41.70;;;;;;10532163;28;20231;-72
2022/10/30 19:38:47;;;;;;;11.10;9.50;;;18.30;41.80;;;;;;10531732;28;20234;-71
2022/10/30 19:43:50;;;;;;;10.57;8.20;;;18.10;41.50;;;;;;10531232;28;20235;-71
2022/10/30 19:48:54;;;;;;;9.63;8.63;;;18.00;41.60;;;;;;10531609;28;20253;-72
2022/10/30 19:53:59;;;;;;;8.27;7.50;;;17.90;41.80;;;;;;10531342;28;20281;-71
2022/10/30 19:59:03;;;;;;;8.20;7.40;;;17.80;41.70;;;;;;10530530;28;20738;-71
2022/10/30 20:04:07;;;;;;;7.77;6.73;;;17.70;41.50;;;;;;10530957;28;20235;-71
2022/10/30 20:09:11;;;;;;;8.90;7.20;;;17.70;41.80;;;;;;10530754;28;20231;-72
2022/10/30 20:14:14;;;;;;;6.57;5.90;;;17.60;41.50;;;;;;10530290;28;20273;-72
2022/10/30 20:19:27;;;;;;;7.90;6.57;;;17.50;41.70;;;;;;10530701;28;20289;-71
2022/10/30 20:24:30;;;;;;;6.30;5.40;;;17.40;42.10;;;;;;10530521;28;20235;-71
2022/10/30 20:29:35;;;;;;;6.47;5.87;;;17.40;41.90;;;;;;10529834;28;20231;-72
2022/10/30 20:34:40;;;;;;;7.63;5.50;;;17.30;41.80;;;;;;10529307;28;20235;-72
2022/10/30 20:39:43;;;;;;;8.43;5.53;;;17.30;42.00;;;;;;10530196;28;20236;-72
2022/10/30 20:44:46;;;;;;;11.60;7.23;;;17.20;41.90;;;;;;10529607;28;20227;-72
2022/10/30 20:49:51;;;;;;;7.43;6.73;;;17.20;41.80;;;;;;10533600;28;20786;-71
2022/10/30 20:54:54;;;;;;;8.63;7.60;;;17.10;41.60;;;;;;10538408;28;20281;-72
2022/10/30 20:59:57;;;;;;;10.63;8.30;;;17.10;41.60;;;;;;10538025;28;20316;-72
2022/10/30 21:05:02;;;;;;;11.60;8.13;;;17.00;41.60;;;;;;10538142;28;20234;-70
2022/10/30 21:10:19;;;;;;;8.10;7.30;;;17.00;41.80;;;;;;10537912;28;20231;-71
2022/10/30 21:15:22;;;;;;;10.47;8.50;;;16.90;41.80;;;;;;10537320;28;20263;-71
2022/10/30 21:20:27;;;;;;;9.60;8.63;;;16.80;41.80;;;;;;10537533;28;20231;-72
2022/10/30 21:25:31;;;;;;;8.97;8.00;;;16.80;42.00;;;;;;10537223;28;20740;-71
2022/10/30 21:30:34;;;;;;;9.47;8.40;;;16.70;41.80;;;;;;10537053;28;20223;-71
2022/10/30 21:35:40;;;;;;;12.03;9.40;;;16.70;41.90;;;;;;10536866;28;20227;-71
2022/10/30 21:40:43;;;;;;;8.23;7.43;;;16.70;42.00;;;;;;10536597;28;20239;-71
2022/10/30 21:45:46;;;;;;;8.17;7.37;;;16.60;41.70;;;;;;10536110;28;20228;-72
2022/10/30 21:50:50;;;;;;;7.37;6.70;;;16.50;41.70;;;;;;10536361;28;20227;-71
2022/10/30 21:55:53;;;;;;;7.47;6.07;;;16.50;42.00;;;;;;10535940;28;20705;-71
2022/10/30 22:00:57;;;;;;;6.33;5.40;;;16.40;41.80;;;;;;10534481;28;20235;-71
2022/10/30 22:06:07;;;;;;;5.23;4.73;;;16.40;41.90;;;;;;10535592;28;20251;-72
2022/10/30 22:11:11;;;;;;;5.10;4.60;;;16.40;41.90;;;;;;10534793;28;20685;-71
2022/10/30 22:16:15;;;;;;;4.40;4.00;;;16.30;41.90;;;;;;10535170;28;20292;-71
2022/10/30 22:21:19;;;;;;;8.37;5.80;;;16.20;41.90;;;;;;10535113;28;20285;-71
2022/10/30 22:26:24;;;;;;;6.83;5.30;;;16.20;42.00;;;;;;10534863;28;20254;-72
2022/10/30 22:31:29;;;;;;;5.87;5.30;;;16.10;41.80;;;;;;10534584;28;20247;-71
2022/10/30 22:36:33;;;;;;;8.30;6.97;;;16.00;42.10;;;;;;10534407;28;20273;-71
2022/10/30 22:41:37;;;;;;;7.10;6.37;;;15.80;42.10;;;;;;10534109;28;20766;-71
2022/10/30 22:46:41;;;;;;;5.33;4.70;;;15.70;41.90;;;;;;10534110;28;20608;-71
2022/10/30 22:51:45;;;;;;;5.37;4.87;;;15.60;42.20;;;;;;10533798;28;20231;-71
2022/10/30 22:56:48;;;;;;;5.90;4.30;;;15.50;42.20;;;;;;10533225;28;20224;-71
2022/10/30 23:01:51;;;;;;;4.90;4.40;;;15.40;42.10;;;;;;10533429;28;20242;-72
2022/10/30 23:06:56;;;;;;;5.87;4.73;;;15.30;42.10;;;;;;10533318;28;20243;-71
2022/10/30 23:11:59;;;;;;;5.07;4.57;;;15.30;42.30;;;;;;10532388;28;20231;-71
2022/10/30 23:17:02;;;;;;;5.57;5.07;;;15.30;42.10;;;;;;10532616;28;20235;-71
2022/10/30 23:22:06;;;;;;;6.33;5.00;;;15.30;42.00;;;;;;10532368;28;20231;-70
2022/10/30 23:27:09;;;;;;;6.27;5.13;;;15.10;42.20;;;;;;10532428;28;20277;-71
2022/10/30 23:32:12;;;;;;;5.87;5.27;;;15.10;42.40;;;;;;10532305;28;20243;-71
2022/10/30 23:37:17;;;;;;;6.60;5.77;;;15.10;42.50;;;;;;10532102;28;20242;-71
2022/10/30 23:42:20;;;;;;;6.93;5.43;;;15.00;42.30;;;;;;10531698;28;20289;-71
2022/10/30 23:47:23;;;;;;;4.90;4.50;;;15.00;42.00;;;;;;10531627;28;20235;-71
2022/10/30 23:52:28;;;;;;;6.07;5.33;;;14.90;42.10;;;;;;10531489;28;20239;-71
2022/10/30 23:57:31;;;;;;;6.60;5.33;;;14.80;42.20;;;;;;10531033;28;20227;-71
